Beaver Islander — WT5906 — position and weather

sailwx.info

Track history (hours):
 
Tides and Currents Weather Stations Pressure Air Temp Water Temp Dewpoint Dewpoint Depression Visibility Wind Speed Wind Dir Waves Ship Positions

Beaver Islander

Owner: BEAVER ISLAND BOAT CO, CHARLEVOIX, MI. More information available from US FCC via Universal Licensing System and Coast Guard Vessel Documentation Center.

Last reported at 2016-Apr-28 17:33 UTC. Time now 2016-Apr-28 19:47 UTC.
Position N 45°43' W 085°29'.

Length 28 m; draft 3 m.

Type: Passenger vessel. MMSI: 366936060.

Date/timePositionNaut miles runAvg speedWind from/ knotsBaromVisibWave heightAir tempDewpointWater temp
2016-Apr-28 17:33N 45°43' W 085°29'1313.0
2016-Apr-28 16:33N 45°31' W 085°23'1312.7
2016-Apr-28 15:33N 45°19' W 085°15'0 0.0
2016-Apr-28 14:33N 45°19' W 085°15'1212.2
2016-Apr-28 13:33N 45°30' W 085°22'1313.3
2016-Apr-28 12:33N 45°43' W 085°29'3 2.7
2016-Apr-28 11:33N 45°45' W 085°31'0 0.0
2016-Apr-28 10:33N 45°45' W 085°31'3 0.2
2016-Apr-27 17:33N 45°42' W 085°28'1312.9
2016-Apr-27 16:33N 45°30' W 085°22'1212.1
2016-Apr-27 15:33N 45°19' W 085°15'0 0.0
2016-Apr-27 14:33N 45°19' W 085°15'1312.6
2016-Apr-27 13:33N 45°31' W 085°22'1313.2
2016-Apr-27 12:33N 45°43' W 085°29'2 2.3
2016-Apr-27 11:33N 45°45' W 085°31'0 0.0
2016-Apr-27 10:33N 45°45' W 085°31'1 0.0
2016-Apr-25 18:06N 45°44' W 085°30'611.7
2016-Apr-25 17:33N 45°40' W 085°24'1111.4
2016-Apr-25 16:33N 45°29' W 085°17'1010.1
2016-Apr-25 15:33N 45°19' W 085°15'1 0.6
2016-Apr-25 14:33N 45°20' W 085°16'1312.7
2016-Apr-25 13:33N 45°32' W 085°21'1312.6
2016-Apr-25 12:33N 45°43' W 085°29'2 2.4
2016-Apr-25 11:33N 45°45' W 085°31'0 0.0
2016-Apr-25 10:33N 45°45' W 085°31'  
2016-Apr-19 14:25N 45°45' W 085°31'3 2.9
2016-Apr-19 13:33N 45°44' W 085°28'  
Track history (hours):
 
Tides and Currents Weather Stations Pressure Air Temp Water Temp Dewpoint Dewpoint Depression Visibility Wind Speed Wind Dir Waves Ship Positions

Beaver Islander

Owner: BEAVER ISLAND BOAT CO, CHARLEVOIX, MI. More information available from US FCC via Universal Licensing System and Coast Guard Vessel Documentation Center.

Last reported at 2016-Apr-28 17:33 UTC. Time now 2016-Apr-28 19:48 UTC.
Position N 45°43' W 085°29'.

Length 28 m; draft 3 m.

Type: Passenger vessel. MMSI: 366936060.

Date/timePositionNaut miles runAvg speedWind from/ knotsBaromVisibWave heightAir tempDewpointWater temp
2016-Apr-28 17:33N 45°43' W 085°29'1313.0
2016-Apr-28 16:33N 45°31' W 085°23'1312.7
2016-Apr-28 15:33N 45°19' W 085°15'0 0.0
2016-Apr-28 14:33N 45°19' W 085°15'1212.2
2016-Apr-28 13:33N 45°30' W 085°22'1313.3
2016-Apr-28 12:33N 45°43' W 085°29'3 2.7
2016-Apr-28 11:33N 45°45' W 085°31'0 0.0
2016-Apr-28 10:33N 45°45' W 085°31'3 0.2
2016-Apr-27 17:33N 45°42' W 085°28'1312.9
2016-Apr-27 16:33N 45°30' W 085°22'1212.1
2016-Apr-27 15:33N 45°19' W 085°15'0 0.0
2016-Apr-27 14:33N 45°19' W 085°15'1312.6
2016-Apr-27 13:33N 45°31' W 085°22'1313.2
2016-Apr-27 12:33N 45°43' W 085°29'2 2.3
2016-Apr-27 11:33N 45°45' W 085°31'0 0.0
2016-Apr-27 10:33N 45°45' W 085°31'1 0.0
2016-Apr-25 18:06N 45°44' W 085°30'611.7
2016-Apr-25 17:33N 45°40' W 085°24'1111.4
2016-Apr-25 16:33N 45°29' W 085°17'1010.1
2016-Apr-25 15:33N 45°19' W 085°15'1 0.6
2016-Apr-25 14:33N 45°20' W 085°16'1312.7
2016-Apr-25 13:33N 45°32' W 085°21'1312.6
2016-Apr-25 12:33N 45°43' W 085°29'2 2.4
2016-Apr-25 11:33N 45°45' W 085°31'0 0.0
2016-Apr-25 10:33N 45°45' W 085°31'  
2016-Apr-19 14:25N 45°45' W 085°31'3 2.9
2016-Apr-19 13:33N 45°44' W 085°28'  

Dump ship's entire track history